Sunday, April 20, 2014
13:20 UTC
  |  Log In   |  Register Free
Airport Search:

Seattle-Tacoma International Airport
(KSEA)

FAA data valid effective April 3, 2014 until May 29, 2014 (unless otherwise noted).

 
 
 
 
 
 
 
 
 
 
 
 
 
 

Current Aviation Weather for Seattle-Tacoma International Airport (KSEA)

The most recent METAR observation for KSEA was updated at: 1253 UTC
METAR Summary (Translated METAR)
KSEA
201253Z 15006KT 10SM SCT024 BKN065 06/04 A3027 RMK AO2 SLP257 T00610039
KRNT
(4.6 nm NE from KSEA)
201253Z AUTO 11004KT 10SM OVC070 07/06 A3027 RMK AO2 SLP256 T00670056
TAF Summary (Translated TAF)
KSEA
201120Z 2012/2118 16010KT P6SM FEW030 BKN080 FM201800 19008KT P6SM BKN080 FM202000 20008KT P6SM SCT080 SCT120 FM210400 16004KT P6SM SCT120
KBFI
(4.9 nm NE from KSEA)
201120Z 2012/2112 13006KT P6SM SCT025 BKN080 TEMPO 2012/2014 BKN025 FM201800 16005KT P6SM SCT040 BKN080 FM202000 18005KT P6SM SCT070 SCT120 FM210400 VRB03KT P6SM SCT120
  Airport Weather Conditions for KSEA

 Current Weather at SEA
43° F
Mostly Cloudy
Southeast winds at 6.9 mph
SEA NOAA Radar

Pressure: 30.27 in
Humidity: 86%
Wind: Southeast at 6.9 MPH (6 KT)
Dew Point: 39.0°F
Visibility: 10.00 mi


Airport Weather Forecast for KSEA

Translated METAR and TAF for KSEA
Translated METAR for KSEA (1320 UTC 20 April 2014)
found at http://aviationweather.gov/adds/metars/
 
METAR text: KSEA 201253Z 15006KT 10SM SCT024 BKN065 06/04 A3027 RMK AO2 SLP257 T00610039
Conditions at: KSEA (SEATTLE/METRO , WA, US) observed 1253 UTC 20 April 2014
Temperature: 6.1°C (43°F)
Dewpoint: 3.9°C (39°F) [RH = 86%]
Pressure (altimeter): 30.27 inches Hg (1025.1 mb)
[Sea-level pressure: 1025.7 mb]
Winds: from the SSE (150 degrees) at 7 MPH (6 knots; 3.1 m/s)
Visibility: 10 or more miles (16+ km)
Ceiling: 6500 feet AGL
Clouds: scattered clouds at 2400 feet AGL
broken clouds at 6500 feet AGL
Weather: no significant weather observed at this time
Translated TAF for KSEA
Forecast for: KSEA (SEATTLE/METRO , WA, US)
TAF Text: KSEA 201120Z 2012/2118 16010KT P6SM FEW030 BKN080
Forecast period: 1200 to 1800 UTC 20 April 2014
Forecast type: FROM: standard forecast or significant change
Winds: from the SSE (160 degrees) at 12 MPH (10 knots; 5.2 m/s)
Visibility: 6 or more miles (10+ km)
Ceiling: 8000 feet AGL
Clouds: few clouds at 3000 feet AGL
broken clouds at 8000 feet AGL
Weather: no significant weather forecast for this period
TAF Text: FM201800 19008KT P6SM BKN080
Forecast period: 1800 to 2000 UTC 20 April 2014
Forecast type: FROM: standard forecast or significant change
Winds: from the S (190 degrees) at 9 MPH (8 knots; 4.2 m/s)
Visibility: 6 or more miles (10+ km)
Ceiling: 8000 feet AGL
Clouds: broken clouds at 8000 feet AGL
Weather: no significant weather forecast for this period
TAF Text: FM202000 20008KT P6SM SCT080 SCT120
Forecast period: 2000 UTC 20 April 2014 to 0400 UTC 21 April 2014
Forecast type: FROM: standard forecast or significant change
Winds: from the SSW (200 degrees) at 9 MPH (8 knots; 4.2 m/s)
Visibility: 6 or more miles (10+ km)
Clouds: scattered clouds at 8000 feet AGL
scattered clouds at 12000 feet AGL
Weather: no significant weather forecast for this period
TAF Text: FM210400 16004KT P6SM SCT120
Forecast period: 0400 to 1800 UTC 21 April 2014
Forecast type: FROM: standard forecast or significant change
Winds: from the SSE (160 degrees) at 5 MPH (4 knots; 2.1 m/s)
Visibility: 6 or more miles (10+ km)
Clouds: scattered clouds at 12000 feet AGL
Weather: no significant weather forecast for this period

Find All Airport Services Find A Hotel Find A Rental Car Find A Golf Course Find A Restaurant $100 Hamburger



FBO's on the Field
FBO Company Facility Photos Services Transportation Aviation Fuel Prices: Prices include tax
Catering Weather Repair Courtesy Rental Type 100LL JetA JetA+ MOGAS 8087
 
Aircraft Service Intl.

This FBO has not yet been rated
FS:Avfuel
Last Updated: Apr-04
Login to update fuel prices
SS:
Contact Aircraft Service Intl.More FBO Information
 
Add another FBO Facility Photos Catering Weather Repair Courtesy Rental Type 100LL JetA JetA+ MOGAS 8087
Services Transportation Aviation Fuel Prices: Prices include tax


GlobalAir.com Airport Resource Center model-print
model-print
model-print
model-print